Terminal Aerodrome Forecast
Issued by NWS Boise, ID

Home | Current Version | Previous Version | Text Only | Print | Product List | Glossary On
Versions: 1 2 3 4 5 6 7 8 9 10 11 12 13 14 15 16 17
000
FTUS45 KBOI 251120
TAFBNO
TAF
KBNO 251120Z 2512/2612 VRB05KT P6SM OVC100
      TEMPO 2512/2514 3SM SHRA BR BKN050
     FM252300 VRB05KT P6SM -SHRA OVC050
      TEMPO 2523/2602 VRB20G30KT -TSRA OVC050CB
     FM260200 29012G20KT P6SM VCSH BKN100=

USA.gov is the U.S. government's official web portal to all federal, state and local government web resources and services.